createdAt,value
2022-12-16T05:42:51.539Z,-7.00
2022-12-16T05:56:55.895Z,-6.90
2022-12-16T06:03:16.408Z,-7.00
2022-12-16T06:09:37.137Z,-7.00
2022-12-16T06:15:57.450Z,-7.00
2022-12-16T06:22:17.843Z,-7.10
2022-12-16T06:33:28.232Z,-7.00
2022-12-16T06:39:52.930Z,-6.90
2022-12-16T06:46:13.640Z,-7.00
2022-12-16T06:52:35.435Z,-7.00
2022-12-16T06:59:00.558Z,-7.00
2022-12-16T07:05:20.954Z,-7.20
2022-12-16T07:11:41.451Z,-7.10
2022-12-16T07:18:04.015Z,-7.20
2022-12-16T07:24:24.276Z,-7.20
2022-12-16T07:31:04.536Z,-7.10
2022-12-16T07:37:24.892Z,-7.20
2022-12-16T07:43:45.091Z,-7.20
2022-12-16T07:50:05.645Z,-7.20
2022-12-16T07:56:26.584Z,-7.20
2022-12-16T08:02:47.169Z,-6.90
2022-12-16T08:09:07.594Z,-6.90
2022-12-16T08:15:28.186Z,-6.90
2022-12-16T08:21:48.633Z,-6.70
2022-12-16T08:28:14.212Z,-6.50
2022-12-16T08:34:34.760Z,-6.30
2022-12-16T08:40:55.261Z,-6.20
2022-12-16T08:47:15.577Z,-5.90
2022-12-16T08:53:36.447Z,-5.40
2022-12-16T08:59:56.889Z,-4.90
2022-12-16T09:06:18.483Z,-4.70
2022-12-16T09:12:39.075Z,-4.50
2022-12-16T09:18:59.574Z,-4.50
2022-12-16T09:25:19.671Z,-4.60
2022-12-16T09:31:40.157Z,-4.50
2022-12-16T09:38:07.701Z,-4.40
2022-12-16T09:44:38.234Z,-4.30
2022-12-16T09:51:01.559Z,-4.40
2022-12-16T09:57:26.208Z,-4.40
2022-12-16T10:03:55.754Z,-4.30
2022-12-16T10:10:19.170Z,-4.20
2022-12-16T10:16:57.815Z,-4.00
2022-12-16T10:23:53.513Z,-3.90
2022-12-16T10:30:14.390Z,-3.50
2022-12-16T10:36:39.988Z,-3.40
2022-12-16T10:43:23.017Z,-3.00
2022-12-16T10:49:43.146Z,-2.90
2022-12-16T10:56:40.542Z,-2.80
2022-12-16T11:03:01.465Z,-2.40
2022-12-16T11:09:43.022Z,-2.20
2022-12-16T11:16:03.411Z,-1.90
2022-12-16T11:22:41.287Z,-1.80
2022-12-16T11:29:01.667Z,-1.80
2022-12-16T11:35:24.534Z,-1.70
2022-12-16T11:42:01.386Z,-1.60
2022-12-16T11:48:56.795Z,-1.40
2022-12-16T11:55:48.214Z,-1.20
2022-12-16T12:02:15.746Z,-1.10
2022-12-16T12:09:03.667Z,-1.20
2022-12-16T12:15:55.104Z,-1.00
2022-12-16T12:22:45.334Z,-1.00
2022-12-16T12:29:23.963Z,-1.20
2022-12-16T12:36:07.255Z,-1.20
2022-12-16T12:42:49.991Z,-1.30
2022-12-16T12:49:38.401Z,-1.30
2022-12-16T12:56:02.967Z,-1.20
2022-12-16T13:02:28.474Z,-1.20
2022-12-16T13:09:12.564Z,-1.20
2022-12-16T13:15:58.247Z,-1.10
2022-12-16T13:22:19.041Z,-1.30
2022-12-16T13:28:42.639Z,-1.50
2022-12-16T13:35:02.889Z,-1.60
2022-12-16T13:41:36.465Z,-1.70
2022-12-16T13:47:59.366Z,-1.70
2022-12-16T13:54:19.550Z,-2.00
2022-12-16T14:00:45.271Z,-2.00
2022-12-16T14:07:05.737Z,-2.10
2022-12-16T14:13:50.115Z,-2.10
2022-12-16T14:20:50.706Z,-2.10
2022-12-16T14:27:11.690Z,-2.10
2022-12-16T14:33:42.106Z,-2.20
2022-12-16T14:40:02.918Z,-2.30
2022-12-16T14:46:23.669Z,-2.40
2022-12-16T14:52:45.697Z,-2.50
2022-12-16T14:59:06.020Z,-2.60
2022-12-16T15:05:26.214Z,-2.70
2022-12-16T15:11:46.994Z,-2.70
2022-12-16T15:18:20.776Z,-2.90
2022-12-16T15:24:44.057Z,-3.10
2022-12-16T15:31:06.021Z,-3.20
2022-12-16T15:37:56.998Z,-3.30
2022-12-16T15:44:20.884Z,-3.40
2022-12-16T15:50:44.969Z,-3.50
2022-12-16T15:57:05.715Z,-3.60
2022-12-16T16:03:48.328Z,-3.60
2022-12-16T16:10:08.563Z,-3.70
2022-12-16T16:23:04.066Z,-3.80
2022-12-16T16:34:25.878Z,-4.00
2022-12-16T16:40:52.715Z,-3.90
2022-12-16T16:47:13.659Z,-4.00
2022-12-16T16:53:35.416Z,-3.90
2022-12-16T16:59:56.095Z,-4.10
2022-12-16T17:06:16.440Z,-4.10
2022-12-16T17:12:43.129Z,-4.20
2022-12-16T17:19:03.768Z,-4.20
2022-12-16T17:25:24.828Z,-4.30
2022-12-16T17:31:44.999Z,-4.30
2022-12-16T17:38:05.563Z,-4.40
2022-12-16T17:44:25.780Z,-4.30
2022-12-16T17:50:45.919Z,-4.40
2022-12-16T17:57:06.339Z,-4.40
2022-12-16T18:03:26.609Z,-4.50
2022-12-16T18:09:46.753Z,-4.60
2022-12-16T18:16:11.739Z,-4.50
2022-12-16T18:22:34.499Z,-4.50
2022-12-16T18:28:55.063Z,-4.60
2022-12-16T18:35:15.233Z,-4.60
2022-12-16T18:41:38.739Z,-4.60
2022-12-16T18:47:59.190Z,-4.70
2022-12-16T18:54:19.468Z,-4.70
2022-12-16T19:00:39.703Z,-4.70
2022-12-16T19:07:00.240Z,-4.50
2022-12-16T19:13:20.372Z,-4.60
2022-12-16T19:19:40.793Z,-4.60
2022-12-16T19:26:01.044Z,-4.70
2022-12-16T19:32:21.381Z,-4.80
2022-12-16T19:38:41.716Z,-4.90
2022-12-16T19:45:02.001Z,-4.80
2022-12-16T19:51:24.287Z,-4.80
2022-12-16T19:57:44.796Z,-4.90
2022-12-16T20:04:04.873Z,-4.70
2022-12-16T20:10:25.661Z,-4.80
2022-12-16T20:16:46.362Z,-4.80
2022-12-16T20:23:06.711Z,-4.80
2022-12-16T20:29:27.092Z,-4.80
2022-12-16T20:35:47.440Z,-4.70
2022-12-16T20:42:07.496Z,-4.70
2022-12-16T20:48:33.018Z,-4.60
2022-12-16T20:54:56.077Z,-4.60
2022-12-16T21:01:16.504Z,-4.40
2022-12-16T21:07:36.652Z,-4.40
2022-12-16T21:13:56.888Z,-4.30
2022-12-16T21:20:17.419Z,-4.20
2022-12-16T21:26:38.047Z,-4.20
2022-12-16T21:32:58.197Z,-4.10
2022-12-16T21:39:18.848Z,-3.80
2022-12-16T21:45:38.983Z,-3.80
2022-12-16T21:51:59.086Z,-3.90
2022-12-16T21:58:19.542Z,-3.90
2022-12-16T22:04:39.873Z,-3.90
2022-12-16T22:11:00.431Z,-3.90
2022-12-16T22:17:20.784Z,-3.90
2022-12-16T22:23:45.892Z,-3.90
2022-12-16T22:30:06.416Z,-3.90
2022-12-16T22:36:28.432Z,-3.90
2022-12-16T22:42:48.703Z,-4.00
2022-12-16T22:49:09.088Z,-4.00
2022-12-16T22:55:29.759Z,-3.90
2022-12-16T23:01:50.121Z,-4.00
2022-12-16T23:08:10.351Z,-4.10
2022-12-16T23:14:30.576Z,-4.10
2022-12-16T23:20:51.885Z,-4.20
2022-12-16T23:27:12.034Z,-4.20
2022-12-16T23:33:32.318Z,-4.20
2022-12-16T23:39:53.605Z,-4.20
2022-12-16T23:46:16.732Z,-4.20
2022-12-16T23:52:37.048Z,-4.20
2022-12-16T23:58:57.440Z,-4.30
